Time;durP1;ratioP1;P1;durP2;ratioP2;P2;SDS_P1;SDS_P2;PMS_P1;PMS_P2;Temp;Humidity;BMP_temperature;BMP_pressure;BME280_temperature;BME280_humidity;BME280_pressure;Samples;Min_cycle;Max_cycle;Signal;HPM_P1;HPM_P2
2023/03/20 00:00:30;;;;;;;15.00;8.73;;;;;4.80;101499.00;;;;9717657;30;20269;-82
2023/03/20 00:05:32;;;;;;;16.30;9.27;;;;;4.80;101485.00;;;;9696617;30;20216;-81
2023/03/20 00:10:37;;;;;;;19.53;9.10;;;;;4.90;101487.00;;;;9681816;30;20220;-81
2023/03/20 00:15:42;;;;;;;20.07;8.67;;;;;5.00;101481.00;;;;9711761;30;20218;-81
2023/03/20 00:20:46;;;;;;;13.80;9.03;;;;;5.00;101486.00;;;;9715527;30;20307;-81
2023/03/20 00:25:48;;;;;;;14.43;8.57;;;;;4.90;101472.00;;;;9687344;30;20302;-81
2023/03/20 00:30:50;;;;;;;15.53;9.20;;;;;4.90;101488.00;;;;9698100;30;20218;-81
2023/03/20 00:35:54;;;;;;;18.97;9.97;;;;;5.00;101488.00;;;;9693412;30;20290;-81
2023/03/20 00:40:57;;;;;;;12.73;8.23;;;;;5.00;101495.00;;;;9690451;30;20207;-81
2023/03/20 00:45:59;;;;;;;18.70;9.47;;;;;5.00;101518.00;;;;9688047;30;20215;-81
2023/03/20 00:51:01;;;;;;;17.57;8.97;;;;;4.90;101532.00;;;;9719962;30;20207;-81
2023/03/20 00:56:04;;;;;;;16.73;9.37;;;;;5.00;101515.00;;;;9681934;30;20207;-81
2023/03/20 01:01:07;;;;;;;20.87;9.17;;;;;5.30;101481.00;;;;9706680;30;20223;-81
2023/03/20 01:06:12;;;;;;;18.93;9.27;;;;;5.40;101495.00;;;;9686621;30;20212;-81
2023/03/20 01:11:18;;;;;;;15.43;8.57;;;;;5.60;101487.00;;;;9728721;30;20207;-80
2023/03/20 01:16:25;;;;;;;17.77;9.23;;;;;5.60;101469.00;;;;9694800;30;20195;-81
2023/03/20 01:21:27;;;;;;;17.70;9.03;;;;;5.60;101459.00;;;;9689431;30;20218;-81
2023/03/20 01:26:32;;;;;;;12.83;8.77;;;;;5.70;101485.00;;;;9698730;30;20234;-81
2023/03/20 01:31:35;;;;;;;14.50;8.70;;;;;5.70;101494.00;;;;9730688;30;20210;-80
2023/03/20 01:36:39;;;;;;;13.83;9.07;;;;;5.80;101476.00;;;;9740629;30;20216;-82
2023/03/20 01:41:41;;;;;;;13.80;7.83;;;;;5.90;101468.00;;;;9710023;30;20203;-81
2023/03/20 01:46:43;;;;;;;14.50;8.37;;;;;6.00;101466.00;;;;9703480;30;20238;-82
2023/03/20 01:51:51;;;;;;;20.00;8.93;;;;;6.00;101488.00;;;;9683285;30;20238;-80
2023/03/20 01:57:03;;;;;;;15.07;8.77;;;;;6.10;101487.00;;;;9709942;30;20198;-81
2023/03/20 02:02:09;;;;;;;16.20;9.20;;;;;6.20;101496.00;;;;9693025;30;20206;-80
2023/03/20 02:07:14;;;;;;;23.23;10.23;;;;;6.30;101501.00;;;;9674084;30;20247;-81
2023/03/20 02:12:37;;;;;;;17.43;9.73;;;;;6.30;101498.00;;;;9692129;30;20261;-81
2023/03/20 02:17:42;;;;;;;18.67;10.07;;;;;6.30;101474.00;;;;9694080;30;20217;-82
2023/03/20 02:23:08;;;;;;;14.90;9.17;;;;;6.20;101469.00;;;;9671651;30;20584;-81
2023/03/20 02:28:26;;;;;;;15.73;10.13;;;;;6.20;101471.00;;;;9685856;30;20227;-82
2023/03/20 02:33:57;;;;;;;17.00;10.27;;;;;6.20;101473.00;;;;9721382;30;20714;-82
2023/03/20 02:39:37;;;;;;;18.30;9.47;;;;;6.10;101468.00;;;;9686100;30;20212;-81
2023/03/20 02:45:06;;;;;;;17.17;9.50;;;;;6.00;101478.00;;;;9744869;30;20232;-81
2023/03/20 02:50:16;;;;;;;20.73;9.40;;;;;6.00;101467.00;;;;9691720;30;20899;-81
2023/03/20 02:55:32;;;;;;;19.20;9.80;;;;;5.90;101452.00;;;;9691361;30;20234;-81
2023/03/20 03:00:51;;;;;;;21.47;10.23;;;;;5.80;101458.00;;;;9706466;30;20304;-81
2023/03/20 03:06:01;;;;;;;17.93;9.80;;;;;5.70;101450.00;;;;9705323;30;20667;-81
2023/03/20 03:11:07;;;;;;;25.43;10.73;;;;;5.70;101442.00;;;;9690921;30;20273;-81
2023/03/20 03:16:16;;;;;;;26.00;10.83;;;;;5.70;101438.00;;;;9735716;30;20207;-81
2023/03/20 03:21:20;;;;;;;24.37;10.13;;;;;5.60;101441.00;;;;9715011;30;20214;-81
2023/03/20 03:26:30;;;;;;;25.20;10.73;;;;;5.60;101439.00;;;;9694628;30;20803;-81
2023/03/20 03:31:32;;;;;;;26.27;11.43;;;;;5.50;101434.00;;;;9703697;30;20218;-82
2023/03/20 03:36:41;;;;;;;24.53;11.40;;;;;5.60;101442.00;;;;9668621;30;20273;-81
2023/03/20 03:42:00;;;;;;;28.37;12.50;;;;;5.60;101437.00;;;;9684550;30;20322;-81
2023/03/20 03:47:19;;;;;;;24.50;11.83;;;;;5.70;101448.00;;;;9707405;30;20222;-81
2023/03/20 03:52:23;;;;;;;25.23;12.60;;;;;5.70;101439.00;;;;9683835;30;20212;-81
2023/03/20 03:57:35;;;;;;;32.53;12.97;;;;;5.70;101430.00;;;;9683409;30;20210;-81
2023/03/20 04:02:48;;;;;;;30.97;12.53;;;;;5.70;101444.00;;;;9717483;30;20218;-80
2023/03/20 04:07:54;;;;;;;26.73;11.83;;;;;5.70;101435.00;;;;9693671;30;20206;-80
2023/03/20 04:12:56;;;;;;;30.37;11.87;;;;;5.70;101445.00;;;;9689890;30;20688;-81
2023/03/20 04:17:58;;;;;;;29.17;12.03;;;;;5.70;101435.00;;;;9703361;30;20568;-81
2023/03/20 04:23:00;;;;;;;28.20;11.70;;;;;5.70;101436.00;;;;9692746;30;20219;-80
2023/03/20 04:28:04;;;;;;;27.80;11.53;;;;;5.80;101437.00;;;;9689696;30;20298;-81
2023/03/20 04:33:31;;;;;;;24.00;10.43;;;;;5.80;101434.00;;;;9712155;30;20264;-79
2023/03/20 04:38:57;;;;;;;21.03;10.67;;;;;5.80;101445.00;;;;9693755;30;20202;-82
2023/03/20 04:44:00;;;;;;;25.27;10.40;;;;;5.80;101432.00;;;;9703644;30;20233;-81
2023/03/20 04:49:02;;;;;;;19.87;9.43;;;;;5.80;101419.00;;;;9686948;30;20234;-82
2023/03/20 04:54:04;;;;;;;21.10;10.53;;;;;5.80;101423.00;;;;9668549;30;20210;-81
2023/03/20 04:59:07;;;;;;;21.03;9.50;;;;;5.80;101416.00;;;;9689561;30;20207;-81
2023/03/20 05:04:09;;;;;;;23.60;9.47;;;;;5.90;101400.00;;;;9680844;30;20751;-80
2023/03/20 05:09:11;;;;;;;24.23;8.80;;;;;5.90;101414.00;;;;9680361;30;20230;-81
2023/03/20 05:14:14;;;;;;;23.27;8.57;;;;;5.90;101408.00;;;;9713244;30;20289;-81
2023/03/20 05:19:41;;;;;;;22.47;9.87;;;;;5.90;101408.00;;;;9680285;30;20211;-80
2023/03/20 05:24:47;;;;;;;26.77;8.83;;;;;5.90;101403.00;;;;9694834;30;20297;-82
2023/03/20 05:30:13;;;;;;;21.83;10.13;;;;;6.00;101398.00;;;;9695066;30;20510;-80
2023/03/20 05:35:37;;;;;;;22.80;8.13;;;;;6.00;101393.00;;;;9726027;30;20222;-80
2023/03/20 05:40:59;;;;;;;19.23;8.40;;;;;6.00;101401.00;;;;9733699;30;20857;-82
2023/03/20 05:46:13;;;;;;;21.07;9.17;;;;;6.00;101407.00;;;;9686834;30;20928;-82
2023/03/20 05:51:33;;;;;;;18.63;8.07;;;;;6.00;101414.00;;;;9700951;30;20211;-82
2023/03/20 05:57:01;;;;;;;23.43;8.57;;;;;6.00;101413.00;;;;9716728;30;20567;-79
2023/03/20 06:02:24;;;;;;;17.40;7.73;;;;;6.10;101423.00;;;;9678870;30;20715;-81
2023/03/20 06:07:40;;;;;;;16.50;6.73;;;;;6.30;101433.00;;;;9686148;30;20242;-79
2023/03/20 06:12:46;;;;;;;18.03;7.10;;;;;6.40;101427.00;;;;9708966;30;20210;-80
2023/03/20 06:17:50;;;;;;;17.57;7.03;;;;;6.50;101430.00;;;;9705920;30;20302;-80
2023/03/20 06:22:52;;;;;;;14.17;6.40;;;;;6.70;101429.00;;;;9687556;30;20238;-80
2023/03/20 06:27:57;;;;;;;20.63;5.93;;;;;6.90;101431.00;;;;9722429;30;20222;-81
2023/03/20 06:33:00;;;;;;;18.37;6.97;;;;;7.10;101437.00;;;;9707618;30;20251;-81
2023/03/20 06:38:11;;;;;;;14.83;6.00;;;;;7.20;101443.00;;;;9703196;30;20258;-80
2023/03/20 06:43:13;;;;;;;18.37;6.73;;;;;7.20;101436.00;;;;9684656;30;20667;-81
2023/03/20 06:48:22;;;;;;;16.10;6.00;;;;;7.10;101432.00;;;;9726238;30;20202;-80
2023/03/20 06:53:26;;;;;;;15.23;6.40;;;;;7.10;101444.00;;;;9686502;30;20203;-80
2023/03/20 06:58:35;;;;;;;12.70;5.83;;;;;7.10;101456.00;;;;9669352;30;20295;-81
2023/03/20 07:03:38;;;;;;;13.93;5.50;;;;;7.20;101457.00;;;;9698151;30;20219;-79
2023/03/20 07:08:41;;;;;;;14.27;5.03;;;;;7.40;101461.00;;;;9682130;30;20212;-81
2023/03/20 07:13:44;;;;;;;13.33;4.77;;;;;7.60;101466.00;;;;9712631;30;20199;-80
2023/03/20 07:19:01;;;;;;;14.70;4.53;;;;;7.80;101475.00;;;;9705349;30;20206;-78
2023/03/20 07:24:08;;;;;;;12.17;4.10;;;;;7.80;101466.00;;;;9699338;30;20230;-79
2023/03/20 07:29:10;;;;;;;14.87;4.83;;;;;8.00;101457.00;;;;9689587;30;20223;-80
2023/03/20 07:34:14;;;;;;;16.93;4.80;;;;;8.10;101461.00;;;;10272957;25;20273;-80
2023/03/20 07:39:18;;;;;;;14.60;3.97;;;;;8.40;101464.00;;;;9705932;30;20245;-81
2023/03/20 07:44:31;;;;;;;20.00;6.27;;;;;8.60;101470.00;;;;9697687;30;20212;-80
2023/03/20 07:49:34;;;;;;;14.03;4.47;;;;;8.90;101467.00;;;;9676797;30;20215;-80
2023/03/20 07:54:37;;;;;;;15.10;4.70;;;;;9.00;101462.00;;;;9687328;30;20705;-79
2023/03/20 07:59:39;;;;;;;21.03;4.63;;;;;9.20;101461.00;;;;9671452;30;20262;-78
2023/03/20 08:04:42;;;;;;;9.37;3.97;;;;;9.10;101471.00;;;;9689711;30;20317;-80
2023/03/20 08:09:44;;;;;;;11.93;4.57;;;;;8.90;101472.00;;;;9718240;30;20206;-80
2023/03/20 08:14:46;;;;;;;29.60;8.50;;;;;8.80;101473.00;;;;9690840;30;20214;-79
2023/03/20 08:19:48;;;;;;;11.17;3.93;;;;;8.70;101478.00;;;;9716253;30;20214;-79
2023/03/20 08:24:50;;;;;;;20.17;3.67;;;;;8.50;101488.00;;;;9689551;30;20263;-78
2023/03/20 08:29:53;;;;;;;14.17;3.87;;;;;8.30;101490.00;;;;9714093;30;20247;-79
2023/03/20 08:34:55;;;;;;;12.10;3.47;;;;;8.40;101492.00;;;;9712118;30;20216;-78
2023/03/20 08:39:57;;;;;;;14.87;3.93;;;;;8.40;101499.00;;;;9681671;30;20254;-78
2023/03/20 08:44:59;;;;;;;11.50;4.20;;;;;8.60;101496.00;;;;9705593;30;20294;-79
2023/03/20 08:50:01;;;;;;;7.37;3.67;;;;;8.80;101502.00;;;;9692969;30;20199;-79
2023/03/20 08:55:05;;;;;;;18.03;5.77;;;;;9.10;101514.00;;;;9712236;30;20199;-78
2023/03/20 09:00:11;;;;;;;17.27;4.63;;;;;9.40;101506.00;;;;9681221;30;20741;-79
2023/03/20 09:05:16;;;;;;;9.60;4.43;;;;;9.60;101501.00;;;;9692833;30;20305;-78
2023/03/20 09:10:19;;;;;;;17.50;4.30;;;;;9.40;101513.00;;;;9702871;30;20202;-78
2023/03/20 09:15:20;;;;;;;14.47;4.57;;;;;9.20;101510.00;;;;9677729;30;20207;-77
2023/03/20 09:20:22;;;;;;;14.37;4.50;;;;;9.60;101516.00;;;;9678492;30;20668;-78
2023/03/20 09:25:25;;;;;;;14.77;5.17;;;;;10.10;101509.00;;;;9704539;30;20247;-78
2023/03/20 09:30:27;;;;;;;12.47;4.60;;;;;10.20;101517.00;;;;9696029;30;20211;-77
2023/03/20 09:35:30;;;;;;;16.77;4.30;;;;;10.40;101509.00;;;;9689838;30;20224;-79
2023/03/20 09:40:55;;;;;;;13.60;4.47;;;;;10.70;101516.00;;;;9657415;30;20207;-79
2023/03/20 09:46:16;;;;;;;10.20;4.37;;;;;11.20;101503.00;;;;9670111;30;20220;-78
2023/03/20 09:51:33;;;;;;;16.23;3.90;;;;;11.70;101503.00;;;;9642501;30;20842;-78
2023/03/20 09:56:36;;;;;;;12.13;3.83;;;;;11.60;101505.00;;;;9656135;30;20242;-78
2023/03/20 10:02:13;;;;;;;11.07;4.77;;;;;11.50;101501.00;;;;9666028;30;20734;-78
2023/03/20 10:07:16;;;;;;;13.87;3.87;;;;;11.60;101500.00;;;;9624967;30;20251;-76
2023/03/20 10:12:45;;;;;;;11.73;4.83;;;;;12.00;101491.00;;;;9649260;30;20236;-77
2023/03/20 10:17:52;;;;;;;15.33;4.70;;;;;12.30;101494.00;;;;9657266;30;20203;-79
2023/03/20 10:23:05;;;;;;;16.87;4.70;;;;;12.60;101480.00;;;;9652233;30;20270;-77
2023/03/20 10:28:31;;;;;;;10.17;3.90;;;;;12.50;101472.00;;;;9662703;30;20235;-77
2023/03/20 10:33:50;;;;;;;11.30;3.63;;;;;12.40;101468.00;;;;9681830;30;20227;-79
2023/03/20 10:39:01;;;;;;;11.70;3.83;;;;;12.40;101469.00;;;;9643056;30;20924;-78
2023/03/20 10:44:09;;;;;;;10.90;4.37;;;;;12.60;101462.00;;;;9665390;30;20216;-78
2023/03/20 10:49:28;;;;;;;9.20;3.23;;;;;13.00;101452.00;;;;9686829;30;20214;-78
2023/03/20 10:54:35;;;;;;;13.73;3.63;;;;;13.00;101444.00;;;;9651581;30;20191;-78
2023/03/20 10:59:47;;;;;;;11.07;3.97;;;;;13.50;101446.00;;;;9659693;30;20212;-78
2023/03/20 11:04:50;;;;;;;17.10;4.53;;;;;13.50;101431.00;;;;9652618;30;20224;-78
2023/03/20 11:10:04;;;;;;;13.83;4.20;;;;;13.40;101425.00;;;;9638730;30;20235;-78
2023/03/20 11:15:33;;;;;;;7.67;3.80;;;;;13.10;101420.00;;;;9657805;30;20207;-79
2023/03/20 11:20:48;;;;;;;13.37;3.53;;;;;13.20;101410.00;;;;9662505;30;20271;-78
2023/03/20 11:25:59;;;;;;;9.67;3.37;;;;;13.10;101415.00;;;;9635867;30;20225;-77
2023/03/20 11:31:07;;;;;;;15.17;4.10;;;;;13.90;101413.00;;;;9644498;30;20223;-79
2023/03/20 11:36:18;;;;;;;12.10;3.07;;;;;15.60;101406.00;;;;9693338;30;20587;-78
2023/03/20 11:41:26;;;;;;;11.40;4.07;;;;;15.50;101406.00;;;;9620095;30;20204;-78
2023/03/20 11:46:28;;;;;;;10.98;4.30;;;;;15.30;101399.00;;;;9651829;30;20224;-78
2023/03/20 11:51:30;;;;;;;9.97;3.20;;;;;15.30;101394.00;;;;9662134;30;20204;-78
2023/03/20 11:56:34;;;;;;;11.97;2.97;;;;;15.50;101402.00;;;;9640878;30;20855;-78
2023/03/20 12:01:47;;;;;;;11.82;3.08;;;;;16.50;101385.00;;;;9639670;30;20679;-78
2023/03/20 12:06:53;;;;;;;6.82;2.95;;;;;18.90;101382.00;;;;9663874;30;20227;-77
2023/03/20 12:12:00;;;;;;;8.70;2.67;;;;;18.40;101383.00;;;;9627870;30;20243;-77
2023/03/20 12:17:10;;;;;;;11.73;3.75;;;;;16.70;101393.00;;;;9637283;30;20223;-78
2023/03/20 12:22:26;;;;;;;14.52;3.38;;;;;15.50;101391.00;;;;9642606;30;20215;-79
2023/03/20 12:27:44;;;;;;;7.82;2.75;;;;;14.80;101381.00;;;;9702393;30;20225;-79
2023/03/20 12:33:14;;;;;;;12.27;3.40;;;;;14.40;101369.00;;;;9650812;30;20223;-79
2023/03/20 12:38:35;;;;;;;9.40;3.10;;;;;14.50;101361.00;;;;9636748;30;20505;-78
2023/03/20 12:44:03;;;;;;;14.63;4.10;;;;;15.00;101356.00;;;;9657689;30;20735;-78
2023/03/20 12:49:18;;;;;;;13.13;3.67;;;;;15.90;101345.00;;;;9639982;30;20216;-79
2023/03/20 12:54:54;;;;;;;11.30;3.22;;;;;16.40;101345.00;;;;9679940;30;20279;-78
2023/03/20 13:00:19;;;;;;;9.38;3.42;;;;;16.00;101352.00;;;;9623574;30;20565;-79
2023/03/20 13:05:35;;;;;;;12.45;4.65;;;;;15.80;101349.00;;;;9659839;30;20220;-78
2023/03/20 13:11:04;;;;;;;11.68;4.35;;;;;15.70;101350.00;;;;9646539;30;20746;-78
2023/03/20 13:16:39;;;;;;;12.35;4.78;;;;;15.10;101352.00;;;;9666975;30;20227;-78
2023/03/20 13:21:46;;;;;;;9.95;4.63;;;;;14.50;101330.00;;;;9655549;30;20278;-78
2023/03/20 13:27:04;;;;;;;11.93;4.97;;;;;14.20;101330.00;;;;9668092;30;20234;-77
2023/03/20 13:32:34;;;;;;;14.47;4.93;;;;;14.00;101336.00;;;;9674356;30;20244;-78
2023/03/20 13:37:41;;;;;;;16.73;4.63;;;;;14.80;101327.00;;;;9657970;30;20203;-78
2023/03/20 13:43:21;;;;;;;13.43;5.20;;;;;15.30;101327.00;;;;9660615;30;20238;-78
2023/03/20 13:48:33;;;;;;;14.10;5.67;;;;;14.80;101327.00;;;;9665934;30;20234;-78
2023/03/20 13:53:56;;;;;;;15.53;5.90;;;;;14.40;101323.00;;;;9647754;30;20216;-78
2023/03/20 13:59:37;;;;;;;21.38;8.15;;;;;14.10;101333.00;;;;9666169;30;20200;-78
2023/03/20 14:04:40;;;;;;;14.57;4.53;;;;;13.90;101328.00;;;;9628723;30;20588;-79
2023/03/20 14:09:42;;;;;;;9.60;4.47;;;;;13.60;101323.00;;;;9684414;30;20238;-78
2023/03/20 14:14:54;;;;;;;12.60;4.83;;;;;13.60;101316.00;;;;9664632;30;20239;-78
2023/03/20 14:20:08;;;;;;;10.50;4.93;;;;;13.60;101317.00;;;;9663554;30;20207;-78
2023/03/20 14:25:19;;;;;;;13.23;5.23;;;;;14.00;101305.00;;;;9655666;30;20584;-79
2023/03/20 14:30:31;;;;;;;14.47;5.50;;;;;14.30;101312.00;;;;9674243;30;20216;-79
2023/03/20 14:35:44;;;;;;;16.13;5.07;;;;;14.20;101308.00;;;;9672708;30;20266;-79
2023/03/20 14:41:10;;;;;;;14.70;5.30;;;;;14.20;101303.00;;;;9641225;30;20196;-79
2023/03/20 14:46:38;;;;;;;10.67;5.47;;;;;14.30;101298.00;;;;9624521;30;20224;-79
2023/03/20 14:51:44;;;;;;;14.20;6.17;;;;;14.50;101301.00;;;;9670818;30;20239;-79
2023/03/20 14:56:50;;;;;;;18.67;6.03;;;;;14.20;101292.00;;;;9650635;30;20569;-80
2023/03/20 15:02:00;;;;;;;14.93;5.80;;;;;14.00;101284.00;;;;9675599;30;20254;-78
2023/03/20 15:07:13;;;;;;;14.80;6.23;;;;;13.80;101279.00;;;;9674505;30;20247;-78
2023/03/20 15:12:23;;;;;;;13.10;5.30;;;;;13.80;101284.00;;;;9648854;30;20719;-78
2023/03/20 15:17:47;;;;;;;19.10;5.83;;;;;13.70;101278.00;;;;9645274;30;20245;-78
2023/03/20 15:22:55;;;;;;;11.53;5.50;;;;;13.60;101285.00;;;;9708082;30;20207;-78
2023/03/20 15:27:59;;;;;;;11.73;4.80;;;;;13.90;101269.00;;;;9676147;30;20300;-78
2023/03/20 15:33:01;;;;;;;16.23;5.03;;;;;14.30;101272.00;;;;9645788;30;20798;-78
2023/03/20 15:38:06;;;;;;;12.60;5.30;;;;;13.90;101262.00;;;;9633877;30;20290;-78
2023/03/20 15:43:13;;;;;;;11.67;6.10;;;;;13.40;101264.00;;;;9636669;30;20243;-78
2023/03/20 15:48:19;;;;;;;22.33;6.53;;;;;13.60;101253.00;;;;9674809;30;20216;-78
2023/03/20 15:53:43;;;;;;;14.63;5.87;;;;;13.70;101269.00;;;;9676310;30;20211;-79
2023/03/20 15:58:51;;;;;;;14.47;6.23;;;;;13.40;101256.00;;;;9647454;30;20204;-78
2023/03/20 16:03:58;;;;;;;15.87;5.70;;;;;13.30;101258.00;;;;9657702;30;20768;-78
2023/03/20 16:09:05;;;;;;;18.47;5.93;;;;;13.00;101246.00;;;;9624942;30;20235;-79
2023/03/20 16:14:15;;;;;;;15.67;6.60;;;;;12.90;101261.00;;;;9656126;30;20208;-78
2023/03/20 16:19:19;;;;;;;16.70;7.03;;;;;12.70;101271.00;;;;9657668;30;20218;-78
2023/03/20 16:24:33;;;;;;;15.20;6.00;;;;;12.50;101258.00;;;;9632363;30;20623;-78
2023/03/20 16:29:41;;;;;;;17.13;5.50;;;;;12.50;101249.00;;;;9679740;30;20222;-77
2023/03/20 16:34:50;;;;;;;16.40;5.97;;;;;12.40;101255.00;;;;9656261;30;20224;-79
2023/03/20 16:40:31;;;;;;;16.67;5.83;;;;;12.20;101272.00;;;;9660670;30;20206;-78
2023/03/20 16:45:35;;;;;;;15.03;5.37;;;;;12.20;101263.00;;;;9632489;30;20878;-78
2023/03/20 16:50:39;;;;;;;10.10;5.53;;;;;12.20;101262.00;;;;9659121;30;20312;-77
2023/03/20 16:55:47;;;;;;;18.10;6.00;;;;;12.30;101260.00;;;;9671089;30;20269;-78
2023/03/20 17:00:55;;;;;;;14.90;5.77;;;;;12.20;101276.00;;;;9681743;30;20217;-78
2023/03/20 17:06:03;;;;;;;15.67;5.87;;;;;12.20;101265.00;;;;9643617;30;20707;-77
2023/03/20 17:11:12;;;;;;;15.37;5.17;;;;;12.20;101266.00;;;;9644036;30;20592;-77
2023/03/20 17:16:19;;;;;;;14.33;5.30;;;;;12.10;101256.00;;;;9652994;30;20299;-78
2023/03/20 17:21:21;;;;;;;14.97;5.67;;;;;11.90;101254.00;;;;9640615;30;20207;-78
2023/03/20 17:26:24;;;;;;;11.03;5.20;;;;;11.90;101262.00;;;;9665070;30;20224;-79
2023/03/20 17:31:26;;;;;;;15.73;5.33;;;;;11.80;101271.00;;;;9669296;30;20204;-78
2023/03/20 17:36:31;;;;;;;17.03;6.53;;;;;11.70;101278.00;;;;9652717;30;20200;-78
2023/03/20 17:41:34;;;;;;;14.93;6.60;;;;;11.60;101276.00;;;;9667089;30;20219;-77
2023/03/20 17:46:36;;;;;;;16.47;6.30;;;;;11.50;101285.00;;;;9650275;30;20224;-78
2023/03/20 17:51:58;;;;;;;16.67;5.70;;;;;11.40;101282.00;;;;9649122;30;20203;-78
2023/03/20 17:57:00;;;;;;;10.97;5.90;;;;;11.30;101274.00;;;;9636523;30;20234;-79
2023/03/20 18:02:03;;;;;;;12.73;5.43;;;;;11.20;101288.00;;;;9656309;30;20706;-78
2023/03/20 18:07:07;;;;;;;14.50;5.70;;;;;11.20;101280.00;;;;9643207;30;20220;-80
2023/03/20 18:12:15;;;;;;;19.40;6.10;;;;;11.20;101293.00;;;;9651459;30;20252;-81
2023/03/20 18:17:17;;;;;;;15.67;5.87;;;;;11.20;101305.00;;;;9641526;30;20238;-80
2023/03/20 18:22:19;;;;;;;13.27;5.40;;;;;11.20;101289.00;;;;9646875;30;20204;-81
2023/03/20 18:27:22;;;;;;;17.50;5.80;;;;;11.20;101280.00;;;;9655090;30;20547;-80
2023/03/20 18:32:25;;;;;;;12.80;6.30;;;;;11.20;101287.00;;;;9643775;30;20226;-80
2023/03/20 18:37:27;;;;;;;20.47;6.77;;;;;11.20;101282.00;;;;9650504;30;20200;-80
2023/03/20 18:42:29;;;;;;;13.23;5.43;;;;;11.20;101287.00;;;;9658555;30;20720;-80
2023/03/20 18:47:31;;;;;;;10.70;6.07;;;;;11.10;101298.00;;;;9654534;30;20341;-80
2023/03/20 18:52:33;;;;;;;15.03;6.30;;;;;11.10;101297.00;;;;9651021;30;20204;-79
2023/03/20 18:57:40;;;;;;;16.17;6.60;;;;;11.10;101285.00;;;;9649356;30;20293;-80
2023/03/20 19:02:44;;;;;;;20.60;6.40;;;;;11.10;101291.00;;;;9653861;30;20212;-79
2023/03/20 19:07:47;;;;;;;25.80;9.67;;;;;11.10;101285.00;;;;9643294;30;20239;-79
2023/03/20 19:12:50;;;;;;;18.43;7.40;;;;;11.10;101292.00;;;;9644048;30;20212;-80
2023/03/20 19:17:53;;;;;;;11.30;5.80;;;;;11.10;101294.00;;;;9650552;30;20212;-78
2023/03/20 19:22:55;;;;;;;14.60;6.27;;;;;11.10;101274.00;;;;9632045;30;20208;-79
2023/03/20 19:27:59;;;;;;;14.60;5.80;;;;;11.10;101275.00;;;;9645976;30;20211;-79
2023/03/20 19:33:02;;;;;;;14.83;6.57;;;;;11.10;101281.00;;;;9640359;30;20322;-79
2023/03/20 19:38:05;;;;;;;11.27;5.50;;;;;11.10;101278.00;;;;9645459;30;20286;-79
2023/03/20 19:43:07;;;;;;;11.03;5.47;;;;;11.00;101275.00;;;;9650690;30;20200;-79
2023/03/20 19:48:29;;;;;;;14.60;6.10;;;;;11.00;101276.00;;;;9663423;30;20217;-79
2023/03/20 19:53:51;;;;;;;13.13;6.00;;;;;11.00;101275.00;;;;9642168;30;20212;-80
2023/03/20 19:58:53;;;;;;;11.27;6.13;;;;;11.00;101274.00;;;;9646341;30;20212;-79
2023/03/20 20:03:57;;;;;;;15.37;7.10;;;;;11.00;101266.00;;;;9661700;30;20218;-79
2023/03/20 20:09:00;;;;;;;14.20;6.37;;;;;10.90;101272.00;;;;9648284;30;20219;-79
2023/03/20 20:14:04;;;;;;;14.33;6.40;;;;;10.90;101267.00;;;;9663096;30;20200;-79
2023/03/20 20:19:10;;;;;;;16.47;6.03;;;;;10.90;101256.00;;;;9660785;30;20284;-79
2023/03/20 20:24:14;;;;;;;17.73;5.47;;;;;10.80;101267.00;;;;9625007;30;20240;-80
2023/03/20 20:29:17;;;;;;;12.43;5.60;;;;;10.80;101263.00;;;;9629698;30;20220;-79
2023/03/20 20:34:20;;;;;;;11.83;5.77;;;;;10.70;101268.00;;;;9649857;30;20216;-79
2023/03/20 20:39:44;;;;;;;7.90;5.03;;;;;10.70;101270.00;;;;9673052;30;20235;-80
2023/03/20 20:44:46;;;;;;;10.03;5.30;;;;;10.60;101263.00;;;;9656535;30;20576;-80
2023/03/20 20:49:48;;;;;;;9.03;4.70;;;;;10.60;101265.00;;;;9642682;30;20215;-79
2023/03/20 20:54:51;;;;;;;8.17;4.53;;;;;10.60;101265.00;;;;9652491;30;20248;-80
2023/03/20 20:59:58;;;;;;;8.97;5.00;;;;;10.50;101258.00;;;;9681270;30;20215;-79
2023/03/20 21:05:00;;;;;;;10.43;5.23;;;;;10.50;101260.00;;;;9671876;30;20199;-80
2023/03/20 21:10:04;;;;;;;8.70;4.97;;;;;10.50;101262.00;;;;9676721;30;20219;-80
2023/03/20 21:15:07;;;;;;;11.80;5.37;;;;;10.50;101262.00;;;;9663906;30;20214;-79
2023/03/20 21:20:10;;;;;;;14.93;5.10;;;;;10.40;101267.00;;;;9628800;30;20699;-80
2023/03/20 21:25:15;;;;;;;10.13;5.13;;;;;10.40;101261.00;;;;9658607;30;20215;-79
2023/03/20 21:30:21;;;;;;;9.27;5.07;;;;;10.40;101269.00;;;;9675304;30;20211;-80
2023/03/20 21:35:25;;;;;;;10.17;5.47;;;;;10.40;101261.00;;;;9645614;30;20236;-80
2023/03/20 21:40:27;;;;;;;8.57;4.83;;;;;10.40;101274.00;;;;9624363;30;20309;-79
2023/03/20 21:45:29;;;;;;;5.97;4.70;;;;;10.40;101278.00;;;;9634478;30;20275;-80
2023/03/20 21:50:52;;;;;;;12.13;5.63;;;;;10.20;101277.00;;;;9669038;30;20210;-80
2023/03/20 21:56:14;;;;;;;14.57;6.23;;;;;10.00;101273.00;;;;9655367;30;20407;-79
2023/03/20 22:01:36;;;;;;;9.23;5.43;;;;;9.90;101271.00;;;;9675095;30;20204;-79
2023/03/20 22:06:58;;;;;;;11.50;6.10;;;;;9.90;101266.00;;;;9656878;30;20218;-79
2023/03/20 22:12:20;;;;;;;8.57;5.73;;;;;9.90;101255.00;;;;9649115;30;20693;-79
2023/03/20 22:17:42;;;;;;;12.00;5.73;;;;;9.90;101260.00;;;;9648043;30;20222;-77
2023/03/20 22:23:04;;;;;;;12.90;6.10;;;;;9.90;101254.00;;;;9651701;30;20206;-79
2023/03/20 22:28:28;;;;;;;11.30;6.60;;;;;10.00;101248.00;;;;9652163;30;20231;-77
2023/03/20 22:33:50;;;;;;;12.53;5.57;;;;;10.00;101249.00;;;;9673544;30;20212;-78
2023/03/20 22:39:13;;;;;;;9.77;5.70;;;;;10.10;101239.00;;;;9645409;30;20207;-79
2023/03/20 22:44:35;;;;;;;10.70;5.33;;;;;10.10;101233.00;;;;9685886;30;20270;-79
2023/03/20 22:49:57;;;;;;;12.53;5.73;;;;;10.10;101237.00;;;;9672042;30;20315;-79
2023/03/20 22:54:59;;;;;;;12.00;5.50;;;;;10.10;101221.00;;;;9688070;30;20212;-79
2023/03/20 23:00:03;;;;;;;12.97;6.10;;;;;10.10;101219.00;;;;9659025;30;20207;-79
2023/03/20 23:05:05;;;;;;;13.00;6.63;;;;;10.10;101210.00;;;;9653943;30;20204;-79
2023/03/20 23:10:08;;;;;;;12.07;6.17;;;;;10.10;101205.00;;;;9691438;30;20201;-79
2023/03/20 23:15:10;;;;;;;11.20;6.83;;;;;10.10;101194.00;;;;9638297;30;20218;-78
2023/03/20 23:20:13;;;;;;;13.53;6.27;;;;;10.10;101187.00;;;;9668391;30;20302;-78
2023/03/20 23:25:22;;;;;;;16.57;6.30;;;;;10.10;101195.00;;;;9668117;30;20219;-78
2023/03/20 23:30:39;;;;;;;10.80;6.03;;;;;10.00;101187.00;;;;9654372;30;20231;-78
2023/03/20 23:36:02;;;;;;;12.23;6.30;;;;;10.00;101180.00;;;;9637378;30;20243;-79
2023/03/20 23:41:20;;;;;;;11.03;5.30;;;;;10.00;101180.00;;;;9652103;30;20247;-78
2023/03/20 23:46:42;;;;;;;11.57;5.80;;;;;10.00;101178.00;;;;9661959;30;20215;-78
2023/03/20 23:51:44;;;;;;;13.40;5.87;;;;;10.00;101167.00;;;;9667306;30;20203;-79
2023/03/20 23:56:46;;;;;;;8.60;5.47;;;;;9.90;101166.00;;;;9665437;30;20298;-79
